sensor_id;sensor_type;location;lat;lon;timestamp;temperature;humidity
39095;DHT22;24840;47.508;19.376;2023-05-01T00:00:51;7.70;99.90
39095;DHT22;24840;47.508;19.376;2023-05-01T00:03:17;7.60;99.90
39095;DHT22;24840;47.508;19.376;2023-05-01T00:05:44;7.70;99.90
39095;DHT22;24840;47.508;19.376;2023-05-01T00:08:10;7.70;99.90
39095;DHT22;24840;47.508;19.376;2023-05-01T00:10:36;7.70;99.90
39095;DHT22;24840;47.508;19.376;2023-05-01T00:13:02;7.80;99.90
39095;DHT22;24840;47.508;19.376;2023-05-01T00:15:29;7.70;99.90
39095;DHT22;24840;47.508;19.376;2023-05-01T00:17:54;7.80;99.90
39095;DHT22;24840;47.508;19.376;2023-05-01T00:20:21;7.80;99.90
39095;DHT22;24840;47.508;19.376;2023-05-01T00:22:48;7.80;99.90
39095;DHT22;24840;47.508;19.376;2023-05-01T00:25:15;7.80;99.90
39095;DHT22;24840;47.508;19.376;2023-05-01T00:27:41;7.70;99.90
39095;DHT22;24840;47.508;19.376;2023-05-01T00:30:07;7.70;99.90
39095;DHT22;24840;47.508;19.376;2023-05-01T00:32:32;7.80;99.90
39095;DHT22;24840;47.508;19.376;2023-05-01T00:34:59;7.80;99.90
39095;DHT22;24840;47.508;19.376;2023-05-01T00:37:25;7.80;99.90
39095;DHT22;24840;47.508;19.376;2023-05-01T00:39:50;7.80;99.90
39095;DHT22;24840;47.508;19.376;2023-05-01T00:42:16;7.80;99.90
39095;DHT22;24840;47.508;19.376;2023-05-01T00:44:42;7.80;99.90
39095;DHT22;24840;47.508;19.376;2023-05-01T00:47:08;7.80;99.90
39095;DHT22;24840;47.508;19.376;2023-05-01T00:49:34;7.80;99.90
39095;DHT22;24840;47.508;19.376;2023-05-01T00:51:59;7.90;99.90
39095;DHT22;24840;47.508;19.376;2023-05-01T00:54:26;7.90;99.90
39095;DHT22;24840;47.508;19.376;2023-05-01T00:56:53;7.80;99.90
39095;DHT22;24840;47.508;19.376;2023-05-01T00:59:19;7.70;99.90
39095;DHT22;24840;47.508;19.376;2023-05-01T01:01:45;7.70;99.90
39095;DHT22;24840;47.508;19.376;2023-05-01T01:04:11;7.70;99.90
39095;DHT22;24840;47.508;19.376;2023-05-01T01:14:57;7.50;99.90
39095;DHT22;24840;47.508;19.376;2023-05-01T01:22:42;7.60;99.90
39095;DHT22;24840;47.508;19.376;2023-05-01T01:28:15;7.40;99.90
39095;DHT22;24840;47.508;19.376;2023-05-01T01:31:20;7.40;99.90
39095;DHT22;24840;47.508;19.376;2023-05-01T01:33:58;7.30;99.90
39095;DHT22;24840;47.508;19.376;2023-05-01T01:36:48;7.30;99.90
39095;DHT22;24840;47.508;19.376;2023-05-01T01:39:29;7.30;99.90
39095;DHT22;24840;47.508;19.376;2023-05-01T01:41:57;7.20;99.90
39095;DHT22;24840;47.508;19.376;2023-05-01T01:44:36;7.20;99.90
39095;DHT22;24840;47.508;19.376;2023-05-01T01:47:06;7.10;99.90
39095;DHT22;24840;47.508;19.376;2023-05-01T01:49:34;6.90;99.90
39095;DHT22;24840;47.508;19.376;2023-05-01T01:52:02;6.80;99.90
39095;DHT22;24840;47.508;19.376;2023-05-01T01:54:34;6.90;99.90
39095;DHT22;24840;47.508;19.376;2023-05-01T01:57:01;7.00;99.90
39095;DHT22;24840;47.508;19.376;2023-05-01T01:59:31;6.90;99.90
39095;DHT22;24840;47.508;19.376;2023-05-01T02:01:58;6.80;99.90
39095;DHT22;24840;47.508;19.376;2023-05-01T02:04:27;6.80;99.90
39095;DHT22;24840;47.508;19.376;2023-05-01T02:06:55;6.80;99.90
39095;DHT22;24840;47.508;19.376;2023-05-01T02:09:23;6.70;99.90
39095;DHT22;24840;47.508;19.376;2023-05-01T02:11:53;6.60;99.90
39095;DHT22;24840;47.508;19.376;2023-05-01T02:14:20;6.50;99.90
39095;DHT22;24840;47.508;19.376;2023-05-01T02:16:47;6.50;99.90
39095;DHT22;24840;47.508;19.376;2023-05-01T02:19:14;6.50;99.90
39095;DHT22;24840;47.508;19.376;2023-05-01T02:21:41;6.40;99.90
39095;DHT22;24840;47.508;19.376;2023-05-01T02:24:09;6.40;99.90
39095;DHT22;24840;47.508;19.376;2023-05-01T02:26:41;6.30;99.90
39095;DHT22;24840;47.508;19.376;2023-05-01T02:29:08;6.30;99.90
39095;DHT22;24840;47.508;19.376;2023-05-01T02:31:34;6.30;99.90
39095;DHT22;24840;47.508;19.376;2023-05-01T02:34:00;6.20;99.90
39095;DHT22;24840;47.508;19.376;2023-05-01T02:36:26;6.20;99.90
39095;DHT22;24840;47.508;19.376;2023-05-01T02:38:53;6.20;99.90
39095;DHT22;24840;47.508;19.376;2023-05-01T02:41:20;6.20;99.90
39095;DHT22;24840;47.508;19.376;2023-05-01T02:43:50;6.10;99.90
39095;DHT22;24840;47.508;19.376;2023-05-01T02:46:19;6.10;99.90
39095;DHT22;24840;47.508;19.376;2023-05-01T02:48:49;6.00;99.90
39095;DHT22;24840;47.508;19.376;2023-05-01T02:51:17;5.80;99.90
39095;DHT22;24840;47.508;19.376;2023-05-01T02:53:44;5.80;99.90
39095;DHT22;24840;47.508;19.376;2023-05-01T02:56:11;5.80;99.90
39095;DHT22;24840;47.508;19.376;2023-05-01T02:58:37;5.80;99.90
39095;DHT22;24840;47.508;19.376;2023-05-01T03:01:03;5.80;99.90
39095;DHT22;24840;47.508;19.376;2023-05-01T03:03:29;5.90;99.90
39095;DHT22;24840;47.508;19.376;2023-05-01T03:05:55;5.80;99.90
39095;DHT22;24840;47.508;19.376;2023-05-01T03:08:21;5.80;99.90
39095;DHT22;24840;47.508;19.376;2023-05-01T03:10:47;5.80;99.90
39095;DHT22;24840;47.508;19.376;2023-05-01T03:13:13;5.70;99.90
39095;DHT22;24840;47.508;19.376;2023-05-01T03:15:39;5.70;99.90
39095;DHT22;24840;47.508;19.376;2023-05-01T03:18:05;5.70;99.90
39095;DHT22;24840;47.508;19.376;2023-05-01T03:20:31;5.70;99.90
39095;DHT22;24840;47.508;19.376;2023-05-01T03:22:57;5.60;99.90
39095;DHT22;24840;47.508;19.376;2023-05-01T03:25:23;5.60;99.90
39095;DHT22;24840;47.508;19.376;2023-05-01T03:27:49;5.50;99.90
39095;DHT22;24840;47.508;19.376;2023-05-01T03:30:16;5.60;99.90
39095;DHT22;24840;47.508;19.376;2023-05-01T03:32:41;5.50;99.90
39095;DHT22;24840;47.508;19.376;2023-05-01T03:35:07;5.50;99.90
39095;DHT22;24840;47.508;19.376;2023-05-01T03:37:34;5.60;99.90
39095;DHT22;24840;47.508;19.376;2023-05-01T03:39:59;5.60;99.90
39095;DHT22;24840;47.508;19.376;2023-05-01T03:42:25;5.40;99.90
39095;DHT22;24840;47.508;19.376;2023-05-01T03:44:51;5.50;99.90
39095;DHT22;24840;47.508;19.376;2023-05-01T03:47:17;5.50;99.90
39095;DHT22;24840;47.508;19.376;2023-05-01T03:49:44;5.50;99.90
39095;DHT22;24840;47.508;19.376;2023-05-01T03:52:10;5.40;99.90
39095;DHT22;24840;47.508;19.376;2023-05-01T03:54:39;5.30;99.90
39095;DHT22;24840;47.508;19.376;2023-05-01T03:57:04;5.40;99.90
39095;DHT22;24840;47.508;19.376;2023-05-01T03:59:30;5.30;99.90
39095;DHT22;24840;47.508;19.376;2023-05-01T04:01:56;5.30;99.90
39095;DHT22;24840;47.508;19.376;2023-05-01T04:04:22;5.30;99.90
39095;DHT22;24840;47.508;19.376;2023-05-01T04:06:47;5.40;99.90
39095;DHT22;24840;47.508;19.376;2023-05-01T04:09:14;5.20;99.90
39095;DHT22;24840;47.508;19.376;2023-05-01T04:11:40;5.10;99.90
39095;DHT22;24840;47.508;19.376;2023-05-01T04:14:06;5.20;99.90
39095;DHT22;24840;47.508;19.376;2023-05-01T04:16:32;5.20;99.90
39095;DHT22;24840;47.508;19.376;2023-05-01T04:18:58;5.30;99.90
39095;DHT22;24840;47.508;19.376;2023-05-01T04:21:24;5.30;99.90
39095;DHT22;24840;47.508;19.376;2023-05-01T04:23:49;5.40;99.90
39095;DHT22;24840;47.508;19.376;2023-05-01T04:26:15;5.40;99.90
39095;DHT22;24840;47.508;19.376;2023-05-01T04:28:41;5.40;99.90
39095;DHT22;24840;47.508;19.376;2023-05-01T04:31:07;5.40;99.90
39095;DHT22;24840;47.508;19.376;2023-05-01T04:33:32;5.50;99.90
39095;DHT22;24840;47.508;19.376;2023-05-01T04:35:58;5.50;99.90
39095;DHT22;24840;47.508;19.376;2023-05-01T04:38:24;5.60;99.90
39095;DHT22;24840;47.508;19.376;2023-05-01T04:40:50;5.70;99.90
39095;DHT22;24840;47.508;19.376;2023-05-01T04:43:16;5.60;99.90
39095;DHT22;24840;47.508;19.376;2023-05-01T04:45:42;5.70;99.90
39095;DHT22;24840;47.508;19.376;2023-05-01T04:48:08;5.80;99.90
39095;DHT22;24840;47.508;19.376;2023-05-01T04:50:33;5.80;99.90
39095;DHT22;24840;47.508;19.376;2023-05-01T04:52:59;5.90;99.90
39095;DHT22;24840;47.508;19.376;2023-05-01T04:55:25;6.00;99.90
39095;DHT22;24840;47.508;19.376;2023-05-01T04:57:51;6.20;99.90
39095;DHT22;24840;47.508;19.376;2023-05-01T05:00:17;6.40;99.90
39095;DHT22;24840;47.508;19.376;2023-05-01T05:02:44;6.60;99.90
39095;DHT22;24840;47.508;19.376;2023-05-01T05:05:10;6.80;99.90
39095;DHT22;24840;47.508;19.376;2023-05-01T05:07:36;7.00;99.90
39095;DHT22;24840;47.508;19.376;2023-05-01T05:10:02;7.20;99.90
39095;DHT22;24840;47.508;19.376;2023-05-01T05:12:28;7.50;99.90
39095;DHT22;24840;47.508;19.376;2023-05-01T05:14:54;7.90;99.90
39095;DHT22;24840;47.508;19.376;2023-05-01T05:17:19;8.00;99.90
39095;DHT22;24840;47.508;19.376;2023-05-01T05:19:45;8.10;99.90
39095;DHT22;24840;47.508;19.376;2023-05-01T05:22:11;8.50;99.90
39095;DHT22;24840;47.508;19.376;2023-05-01T05:24:37;8.70;99.90
39095;DHT22;24840;47.508;19.376;2023-05-01T05:27:03;9.00;99.90
39095;DHT22;24840;47.508;19.376;2023-05-01T05:29:30;9.20;99.90
39095;DHT22;24840;47.508;19.376;2023-05-01T05:31:57;9.60;99.90
39095;DHT22;24840;47.508;19.376;2023-05-01T05:34:24;9.80;99.90
39095;DHT22;24840;47.508;19.376;2023-05-01T05:36:50;10.00;99.90
39095;DHT22;24840;47.508;19.376;2023-05-01T05:39:16;10.10;99.90
39095;DHT22;24840;47.508;19.376;2023-05-01T05:41:42;10.20;99.90
39095;DHT22;24840;47.508;19.376;2023-05-01T05:44:08;10.40;98.70
39095;DHT22;24840;47.508;19.376;2023-05-01T05:46:34;10.60;99.10
39095;DHT22;24840;47.508;19.376;2023-05-01T05:48:59;10.70;97.30
39095;DHT22;24840;47.508;19.376;2023-05-01T05:51:25;10.90;96.80
39095;DHT22;24840;47.508;19.376;2023-05-01T05:53:51;11.10;95.60
39095;DHT22;24840;47.508;19.376;2023-05-01T05:56:16;11.10;96.40
39095;DHT22;24840;47.508;19.376;2023-05-01T05:58:42;11.20;95.30
39095;DHT22;24840;47.508;19.376;2023-05-01T06:01:08;11.40;93.60
39095;DHT22;24840;47.508;19.376;2023-05-01T06:03:34;11.70;94.90
39095;DHT22;24840;47.508;19.376;2023-05-01T06:06:00;11.80;92.00
39095;DHT22;24840;47.508;19.376;2023-05-01T06:08:26;11.90;92.40
39095;DHT22;24840;47.508;19.376;2023-05-01T06:10:52;12.10;90.10
39095;DHT22;24840;47.508;19.376;2023-05-01T06:13:18;12.20;89.80
39095;DHT22;24840;47.508;19.376;2023-05-01T06:15:44;12.30;90.40
39095;DHT22;24840;47.508;19.376;2023-05-01T06:18:10;12.50;90.00
39095;DHT22;24840;47.508;19.376;2023-05-01T06:20:36;12.50;87.80
39095;DHT22;24840;47.508;19.376;2023-05-01T06:23:03;12.60;89.80
39095;DHT22;24840;47.508;19.376;2023-05-01T06:25:29;12.70;87.40
39095;DHT22;24840;47.508;19.376;2023-05-01T06:27:55;12.80;86.70
39095;DHT22;24840;47.508;19.376;2023-05-01T06:30:21;13.00;83.20
39095;DHT22;24840;47.508;19.376;2023-05-01T06:32:47;13.00;85.80
39095;DHT22;24840;47.508;19.376;2023-05-01T06:35:14;13.30;85.30
39095;DHT22;24840;47.508;19.376;2023-05-01T06:37:40;13.60;89.50
39095;DHT22;24840;47.508;19.376;2023-05-01T06:40:07;13.90;88.20
39095;DHT22;24840;47.508;19.376;2023-05-01T06:42:33;13.80;81.20
39095;DHT22;24840;47.508;19.376;2023-05-01T06:44:58;13.70;81.70
39095;DHT22;24840;47.508;19.376;2023-05-01T06:47:24;14.00;82.60
39095;DHT22;24840;47.508;19.376;2023-05-01T06:49:50;14.00;80.00
39095;DHT22;24840;47.508;19.376;2023-05-01T06:52:16;14.10;77.60
39095;DHT22;24840;47.508;19.376;2023-05-01T06:54:41;14.20;80.10
39095;DHT22;24840;47.508;19.376;2023-05-01T06:57:07;14.40;79.70
39095;DHT22;24840;47.508;19.376;2023-05-01T06:59:33;14.40;78.80
39095;DHT22;24840;47.508;19.376;2023-05-01T07:01:59;14.60;78.10
39095;DHT22;24840;47.508;19.376;2023-05-01T07:04:24;14.80;77.80
39095;DHT22;24840;47.508;19.376;2023-05-01T07:06:50;14.90;77.10
39095;DHT22;24840;47.508;19.376;2023-05-01T07:09:16;14.90;75.40
39095;DHT22;24840;47.508;19.376;2023-05-01T07:11:41;15.00;75.00
39095;DHT22;24840;47.508;19.376;2023-05-01T07:14:07;15.40;75.80
39095;DHT22;24840;47.508;19.376;2023-05-01T07:16:33;15.30;76.60
39095;DHT22;24840;47.508;19.376;2023-05-01T07:18:59;15.60;73.10
39095;DHT22;24840;47.508;19.376;2023-05-01T07:21:24;15.70;75.50
39095;DHT22;24840;47.508;19.376;2023-05-01T07:23:50;15.70;74.90
39095;DHT22;24840;47.508;19.376;2023-05-01T07:26:16;15.80;73.20
39095;DHT22;24840;47.508;19.376;2023-05-01T07:28:42;16.20;76.80
39095;DHT22;24840;47.508;19.376;2023-05-01T07:31:11;16.50;74.30
39095;DHT22;24840;47.508;19.376;2023-05-01T07:33:36;16.30;70.10
39095;DHT22;24840;47.508;19.376;2023-05-01T07:36:03;16.80;77.70
39095;DHT22;24840;47.508;19.376;2023-05-01T07:38:29;16.60;72.40
39095;DHT22;24840;47.508;19.376;2023-05-01T07:40:55;16.80;72.80
39095;DHT22;24840;47.508;19.376;2023-05-01T07:43:22;17.00;71.10
39095;DHT22;24840;47.508;19.376;2023-05-01T07:45:58;17.10;70.20
39095;DHT22;24840;47.508;19.376;2023-05-01T07:48:26;17.00;71.90
39095;DHT22;24840;47.508;19.376;2023-05-01T07:50:52;17.30;68.70
39095;DHT22;24840;47.508;19.376;2023-05-01T07:53:18;17.50;71.50
39095;DHT22;24840;47.508;19.376;2023-05-01T07:55:44;18.00;70.30
39095;DHT22;24840;47.508;19.376;2023-05-01T07:58:09;17.90;68.10
39095;DHT22;24840;47.508;19.376;2023-05-01T08:00:35;18.20;71.40
39095;DHT22;24840;47.508;19.376;2023-05-01T08:03:01;18.20;67.40
39095;DHT22;24840;47.508;19.376;2023-05-01T08:05:27;18.30;67.90
39095;DHT22;24840;47.508;19.376;2023-05-01T08:07:53;18.20;65.80
39095;DHT22;24840;47.508;19.376;2023-05-01T08:10:18;18.60;69.30
39095;DHT22;24840;47.508;19.376;2023-05-01T08:12:44;18.90;67.80
39095;DHT22;24840;47.508;19.376;2023-05-01T08:15:10;19.10;67.30
39095;DHT22;24840;47.508;19.376;2023-05-01T08:17:36;19.30;68.40
39095;DHT22;24840;47.508;19.376;2023-05-01T08:20:02;19.20;65.60
39095;DHT22;24840;47.508;19.376;2023-05-01T08:22:28;19.30;66.20
39095;DHT22;24840;47.508;19.376;2023-05-01T08:24:54;19.10;59.10
39095;DHT22;24840;47.508;19.376;2023-05-01T08:27:19;19.00;61.80
39095;DHT22;24840;47.508;19.376;2023-05-01T08:29:45;18.90;63.50
39095;DHT22;24840;47.508;19.376;2023-05-01T08:32:11;19.10;62.20
39095;DHT22;24840;47.508;19.376;2023-05-01T08:34:37;19.40;62.30
39095;DHT22;24840;47.508;19.376;2023-05-01T08:37:03;19.30;63.60
39095;DHT22;24840;47.508;19.376;2023-05-01T08:39:28;19.80;60.10
39095;DHT22;24840;47.508;19.376;2023-05-01T08:41:54;20.30;66.20
39095;DHT22;24840;47.508;19.376;2023-05-01T08:44:26;20.00;62.30
39095;DHT22;24840;47.508;19.376;2023-05-01T08:46:55;19.70;57.50
39095;DHT22;24840;47.508;19.376;2023-05-01T08:49:26;19.60;58.70
39095;DHT22;24840;47.508;19.376;2023-05-01T08:51:53;20.40;61.50
39095;DHT22;24840;47.508;19.376;2023-05-01T08:54:22;20.00;56.20
39095;DHT22;24840;47.508;19.376;2023-05-01T08:56:50;20.30;57.90
39095;DHT22;24840;47.508;19.376;2023-05-01T08:59:18;20.70;59.40
39095;DHT22;24840;47.508;19.376;2023-05-01T09:01:45;20.10;54.60
39095;DHT22;24840;47.508;19.376;2023-05-01T09:04:12;20.70;58.70
39095;DHT22;24840;47.508;19.376;2023-05-01T09:06:39;21.40;58.80
39095;DHT22;24840;47.508;19.376;2023-05-01T09:09:05;21.30;54.00
39095;DHT22;24840;47.508;19.376;2023-05-01T09:11:30;21.30;58.10
39095;DHT22;24840;47.508;19.376;2023-05-01T09:13:57;20.70;57.80
39095;DHT22;24840;47.508;19.376;2023-05-01T09:16:30;21.20;55.70
39095;DHT22;24840;47.508;19.376;2023-05-01T09:18:56;21.70;59.20
39095;DHT22;24840;47.508;19.376;2023-05-01T09:21:24;21.60;56.80
39095;DHT22;24840;47.508;19.376;2023-05-01T09:23:51;21.90;54.90
39095;DHT22;24840;47.508;19.376;2023-05-01T09:26:18;22.30;55.10
39095;DHT22;24840;47.508;19.376;2023-05-01T09:28:45;22.70;56.00
39095;DHT22;24840;47.508;19.376;2023-05-01T09:31:25;22.50;54.00
39095;DHT22;24840;47.508;19.376;2023-05-01T09:33:58;23.00;56.50
39095;DHT22;24840;47.508;19.376;2023-05-01T09:36:27;22.70;54.80
39095;DHT22;24840;47.508;19.376;2023-05-01T09:38:54;22.70;55.30
39095;DHT22;24840;47.508;19.376;2023-05-01T09:41:20;23.10;50.50
39095;DHT22;24840;47.508;19.376;2023-05-01T09:43:54;22.90;56.20
39095;DHT22;24840;47.508;19.376;2023-05-01T09:46:21;22.60;53.40
39095;DHT22;24840;47.508;19.376;2023-05-01T09:49:00;23.20;54.40
39095;DHT22;24840;47.508;19.376;2023-05-01T09:51:31;23.70;53.10
39095;DHT22;24840;47.508;19.376;2023-05-01T09:54:01;23.90;52.40
39095;DHT22;24840;47.508;19.376;2023-05-01T09:56:30;23.90;53.30
39095;DHT22;24840;47.508;19.376;2023-05-01T09:59:19;23.10;48.90
39095;DHT22;24840;47.508;19.376;2023-05-01T10:01:45;23.50;56.30
39095;DHT22;24840;47.508;19.376;2023-05-01T10:04:11;23.60;50.90
39095;DHT22;24840;47.508;19.376;2023-05-01T10:06:38;23.40;51.60
39095;DHT22;24840;47.508;19.376;2023-05-01T10:09:05;23.30;51.50
39095;DHT22;24840;47.508;19.376;2023-05-01T10:11:47;23.80;52.80
39095;DHT22;24840;47.508;19.376;2023-05-01T10:14:13;23.90;47.40
39095;DHT22;24840;47.508;19.376;2023-05-01T10:16:39;23.10;54.40
39095;DHT22;24840;47.508;19.376;2023-05-01T10:19:05;23.40;51.10
39095;DHT22;24840;47.508;19.376;2023-05-01T10:21:32;24.40;50.20
39095;DHT22;24840;47.508;19.376;2023-05-01T10:24:00;25.30;54.60
39095;DHT22;24840;47.508;19.376;2023-05-01T10:26:32;25.20;52.90
39095;DHT22;24840;47.508;19.376;2023-05-01T10:28:59;25.00;52.50
39095;DHT22;24840;47.508;19.376;2023-05-01T10:31:26;24.50;50.00
39095;DHT22;24840;47.508;19.376;2023-05-01T10:33:53;24.70;50.40
39095;DHT22;24840;47.508;19.376;2023-05-01T10:36:26;25.10;51.80
39095;DHT22;24840;47.508;19.376;2023-05-01T10:38:53;25.10;48.30
39095;DHT22;24840;47.508;19.376;2023-05-01T10:44:23;25.20;47.00
39095;DHT22;24840;47.508;19.376;2023-05-01T10:46:49;25.20;50.60
39095;DHT22;24840;47.508;19.376;2023-05-01T10:49:15;25.80;52.00
39095;DHT22;24840;47.508;19.376;2023-05-01T10:56:49;26.30;51.10
39095;DHT22;24840;47.508;19.376;2023-05-01T10:59:15;25.70;46.80
39095;DHT22;24840;47.508;19.376;2023-05-01T11:01:42;25.80;49.80
39095;DHT22;24840;47.508;19.376;2023-05-01T11:09:42;26.00;49.40
39095;DHT22;24840;47.508;19.376;2023-05-01T11:12:09;25.80;50.20
39095;DHT22;24840;47.508;19.376;2023-05-01T11:20:05;26.70;48.40
39095;DHT22;24840;47.508;19.376;2023-05-01T11:22:35;26.40;50.10
39095;DHT22;24840;47.508;19.376;2023-05-01T11:25:02;27.10;51.60
39095;DHT22;24840;47.508;19.376;2023-05-01T11:27:31;27.10;49.60
39095;DHT22;24840;47.508;19.376;2023-05-01T11:29:59;26.70;49.40
39095;DHT22;24840;47.508;19.376;2023-05-01T11:32:28;26.10;47.30
39095;DHT22;24840;47.508;19.376;2023-05-01T11:34:54;25.70;48.30
39095;DHT22;24840;47.508;19.376;2023-05-01T11:37:41;25.20;49.10
39095;DHT22;24840;47.508;19.376;2023-05-01T11:42:47;25.30;47.10
39095;DHT22;24840;47.508;19.376;2023-05-01T11:45:13;26.00;47.00
39095;DHT22;24840;47.508;19.376;2023-05-01T11:47:39;26.40;49.40
39095;DHT22;24840;47.508;19.376;2023-05-01T11:50:06;26.50;49.30
39095;DHT22;24840;47.508;19.376;2023-05-01T11:52:50;26.50;49.40
39095;DHT22;24840;47.508;19.376;2023-05-01T11:55:20;26.90;46.70
39095;DHT22;24840;47.508;19.376;2023-05-01T11:57:55;26.20;46.90
39095;DHT22;24840;47.508;19.376;2023-05-01T12:00:33;26.00;48.00
39095;DHT22;24840;47.508;19.376;2023-05-01T12:03:02;26.10;49.80
39095;DHT22;24840;47.508;19.376;2023-05-01T12:05:29;26.60;51.00
39095;DHT22;24840;47.508;19.376;2023-05-01T12:08:25;27.10;49.60
39095;DHT22;24840;47.508;19.376;2023-05-01T12:10:57;27.90;45.90
39095;DHT22;24840;47.508;19.376;2023-05-01T12:13:23;27.20;47.50
39095;DHT22;24840;47.508;19.376;2023-05-01T12:15:53;26.80;47.60
39095;DHT22;24840;47.508;19.376;2023-05-01T12:18:20;27.40;50.40
39095;DHT22;24840;47.508;19.376;2023-05-01T12:20:51;26.70;48.50
39095;DHT22;24840;47.508;19.376;2023-05-01T12:23:17;26.70;46.80
39095;DHT22;24840;47.508;19.376;2023-05-01T12:25:44;26.70;46.40
39095;DHT22;24840;47.508;19.376;2023-05-01T12:28:18;26.90;48.10
39095;DHT22;24840;47.508;19.376;2023-05-01T12:30:45;27.00;47.10
39095;DHT22;24840;47.508;19.376;2023-05-01T12:33:15;26.30;45.70
39095;DHT22;24840;47.508;19.376;2023-05-01T12:35:42;26.40;48.30
39095;DHT22;24840;47.508;19.376;2023-05-01T12:38:20;25.80;47.50
39095;DHT22;24840;47.508;19.376;2023-05-01T12:40:56;25.40;46.10
39095;DHT22;24840;47.508;19.376;2023-05-01T12:43:36;25.80;45.90
39095;DHT22;24840;47.508;19.376;2023-05-01T12:46:03;25.50;48.30
39095;DHT22;24840;47.508;19.376;2023-05-01T12:48:30;26.60;47.90
39095;DHT22;24840;47.508;19.376;2023-05-01T12:50:59;26.30;46.50
39095;DHT22;24840;47.508;19.376;2023-05-01T12:53:26;26.80;48.90
39095;DHT22;24840;47.508;19.376;2023-05-01T12:55:54;26.80;47.50
39095;DHT22;24840;47.508;19.376;2023-05-01T12:58:21;27.20;45.00
39095;DHT22;24840;47.508;19.376;2023-05-01T13:00:52;26.70;46.70
39095;DHT22;24840;47.508;19.376;2023-05-01T13:03:26;27.10;44.10
39095;DHT22;24840;47.508;19.376;2023-05-01T13:06:00;26.50;45.00
39095;DHT22;24840;47.508;19.376;2023-05-01T13:08:31;26.90;46.90
39095;DHT22;24840;47.508;19.376;2023-05-01T13:10:59;26.90;45.20
39095;DHT22;24840;47.508;19.376;2023-05-01T13:13:27;26.50;45.60
39095;DHT22;24840;47.508;19.376;2023-05-01T13:16:02;26.40;42.00
39095;DHT22;24840;47.508;19.376;2023-05-01T13:18:29;26.60;48.10
39095;DHT22;24840;47.508;19.376;2023-05-01T13:21:07;27.20;47.50
39095;DHT22;24840;47.508;19.376;2023-05-01T13:23:35;26.50;45.80
39095;DHT22;24840;47.508;19.376;2023-05-01T13:26:02;26.90;45.00
39095;DHT22;24840;47.508;19.376;2023-05-01T13:28:30;27.30;47.20
39095;DHT22;24840;47.508;19.376;2023-05-01T13:30:57;26.50;42.80
39095;DHT22;24840;47.508;19.376;2023-05-01T13:33:23;26.60;46.40
39095;DHT22;24840;47.508;19.376;2023-05-01T13:35:49;25.90;47.60
39095;DHT22;24840;47.508;19.376;2023-05-01T13:38:15;27.30;48.90
39095;DHT22;24840;47.508;19.376;2023-05-01T13:40:44;26.90;43.00
39095;DHT22;24840;47.508;19.376;2023-05-01T13:43:13;27.30;48.20
39095;DHT22;24840;47.508;19.376;2023-05-01T13:45:41;27.40;44.50
39095;DHT22;24840;47.508;19.376;2023-05-01T13:48:08;26.40;45.40
39095;DHT22;24840;47.508;19.376;2023-05-01T13:50:37;26.30;48.10
39095;DHT22;24840;47.508;19.376;2023-05-01T13:53:06;26.20;43.80
39095;DHT22;24840;47.508;19.376;2023-05-01T13:55:39;25.30;43.50
39095;DHT22;24840;47.508;19.376;2023-05-01T13:58:06;25.40;46.90
39095;DHT22;24840;47.508;19.376;2023-05-01T14:00:33;26.00;46.60
39095;DHT22;24840;47.508;19.376;2023-05-01T14:03:01;26.10;46.30
39095;DHT22;24840;47.508;19.376;2023-05-01T14:05:28;26.30;45.80
39095;DHT22;24840;47.508;19.376;2023-05-01T14:07:56;26.40;46.90
39095;DHT22;24840;47.508;19.376;2023-05-01T14:10:26;26.90;45.40
39095;DHT22;24840;47.508;19.376;2023-05-01T14:12:59;27.20;46.50
39095;DHT22;24840;47.508;19.376;2023-05-01T14:15:26;26.70;42.40
39095;DHT22;24840;47.508;19.376;2023-05-01T14:17:54;27.00;46.30
39095;DHT22;24840;47.508;19.376;2023-05-01T14:20:22;26.90;45.60
39095;DHT22;24840;47.508;19.376;2023-05-01T14:22:50;26.10;46.20
39095;DHT22;24840;47.508;19.376;2023-05-01T14:27:53;25.30;43.80
39095;DHT22;24840;47.508;19.376;2023-05-01T14:30:28;25.70;46.20
39095;DHT22;24840;47.508;19.376;2023-05-01T14:33:01;26.30;45.90
39095;DHT22;24840;47.508;19.376;2023-05-01T14:35:28;26.20;46.00
39095;DHT22;24840;47.508;19.376;2023-05-01T14:37:54;26.30;46.80
39095;DHT22;24840;47.508;19.376;2023-05-01T14:40:26;25.90;43.20
39095;DHT22;24840;47.508;19.376;2023-05-01T14:42:57;25.00;45.60
39095;DHT22;24840;47.508;19.376;2023-05-01T14:45:27;25.30;46.40
39095;DHT22;24840;47.508;19.376;2023-05-01T14:47:53;25.00;45.60
39095;DHT22;24840;47.508;19.376;2023-05-01T14:50:23;25.10;46.80
39095;DHT22;24840;47.508;19.376;2023-05-01T14:55:25;25.00;47.70
39095;DHT22;24840;47.508;19.376;2023-05-01T14:57:52;25.00;48.50
39095;DHT22;24840;47.508;19.376;2023-05-01T15:00:19;25.00;48.30
39095;DHT22;24840;47.508;19.376;2023-05-01T15:02:45;24.50;46.60
39095;DHT22;24840;47.508;19.376;2023-05-01T15:05:11;24.60;49.50
39095;DHT22;24840;47.508;19.376;2023-05-01T15:07:37;25.00;48.60
39095;DHT22;24840;47.508;19.376;2023-05-01T15:10:04;25.00;46.40
39095;DHT22;24840;47.508;19.376;2023-05-01T15:12:30;24.80;47.60
39095;DHT22;24840;47.508;19.376;2023-05-01T15:14:56;24.90;46.10
39095;DHT22;24840;47.508;19.376;2023-05-01T15:17:22;24.40;45.90
39095;DHT22;24840;47.508;19.376;2023-05-01T15:19:48;24.70;48.30
39095;DHT22;24840;47.508;19.376;2023-05-01T15:22:14;24.50;47.10
39095;DHT22;24840;47.508;19.376;2023-05-01T15:24:40;24.10;45.70
39095;DHT22;24840;47.508;19.376;2023-05-01T15:27:05;23.80;48.70
39095;DHT22;24840;47.508;19.376;2023-05-01T15:29:32;23.80;46.90
39095;DHT22;24840;47.508;19.376;2023-05-01T15:31:58;23.80;48.20
39095;DHT22;24840;47.508;19.376;2023-05-01T15:34:24;23.20;46.00
39095;DHT22;24840;47.508;19.376;2023-05-01T15:36:49;23.50;46.50
39095;DHT22;24840;47.508;19.376;2023-05-01T15:39:15;23.20;46.40
39095;DHT22;24840;47.508;19.376;2023-05-01T15:41:41;22.90;47.10
39095;DHT22;24840;47.508;19.376;2023-05-01T15:44:07;22.60;48.00
39095;DHT22;24840;47.508;19.376;2023-05-01T15:46:38;22.30;46.70
39095;DHT22;24840;47.508;19.376;2023-05-01T15:49:09;22.30;50.00
39095;DHT22;24840;47.508;19.376;2023-05-01T15:51:34;22.40;48.60
39095;DHT22;24840;47.508;19.376;2023-05-01T15:54:01;22.50;48.40
39095;DHT22;24840;47.508;19.376;2023-05-01T15:56:29;22.50;47.30
39095;DHT22;24840;47.508;19.376;2023-05-01T15:59:01;22.10;49.70
39095;DHT22;24840;47.508;19.376;2023-05-01T16:01:27;22.00;50.60
39095;DHT22;24840;47.508;19.376;2023-05-01T16:03:53;21.90;47.20
39095;DHT22;24840;47.508;19.376;2023-05-01T16:06:19;21.70;47.20